Airfield :
LOGIN :

Register | Disclaimer

   EN    FR    IT 

 










Legend :    VFR   Marginal VFR   IFR   Intensive IFR   Very Intensive IFR
Visi :
Ceiling :
>= 8 km
>= 3000ft
5 to 8 km
1000 to 3000 ft
1500m to 5 km
500 to 1000 ft
800 to 1500m
200 to 500 ft
< 800m
< 200 ft
Symbols :   Thunderstorms  Fog  Heavy snow  Heavy precipitations  Wind > 20 kt
SIGMETs :     Misc.  Thunderstorms  Icing  Turbulence  Mountain Waves  Volcanic Ashes







- Airport Elevation : 1363 ft


ETIC - Grafenwohr Army Air Field

CURRENT METAR :
  • 211556Z AUTO 00000KT 9999 SCT027 OVC046 00/00 A3001 RMK AO2 SLP187 T00011002 FZRANO $

EXPIRED METARs :
  • 211541Z AUTO 00000KT 9999 BKN027 BKN035 OVC044 00/00 A3001 RMK AO2 SLP187 FZRANO $
  • 211456Z AUTO 00000KT 9999 BKN038 OVC050 00/M01 A2999 RMK AO2 SLP180 60000 T10011008 52032 FZRANO $
  • 211356Z AUTO 30010KT 9999 BKN031 OVC043 01/M01 A2995 RMK AO2 SLP165 T00101008 FZRANO $

TAF TAF ETIC
Valid from the 21 at 14:00 until the 22 at 20:00 UTC


211409Z 2114/2220 VRB06KT 9999 BKN020 610208 QNH2995INS
BECMG 2116/2117 VRB06KT 6000 -SHSN BKN010 610109 QNH3001INS
BECMG 2119/2120 VRB06KT 8000 BR BKN015 620155 QNH2986INS
BECMG 2204/2205 16009KT 6000 -SHSN BKN010 690101 620209 QNH2976INS
BECMG 2212/2213 VRB06KT 6000 -SHRASN BKN010 620209 QNH2976INS TX01/2114Z TNM04/2122Z
No reported NOTAMs for that airfield.



MET'MAP, your aeronautical weather chart ! - Copyright ORBIFLY December 2007 - Disclaimer

ORBIFLY MET'MAP TEAM :

Programming & Development : Alexandra Zaïnal
Concept & Development : Baudouin d'Aumeries
Co-Development & Prog : Marc-Olivier Méhu
Technical & hardware support : Manuel Goepfert

Contact : metmap@orbifly.com




SOURCES & CREDITS :

   NOAA